Time;durP1;ratioP1;P1;durP2;ratioP2;P2;SDS_P1;SDS_P2;PMS_P1;PMS_P2;Temp;Humidity;BMP_temperature;BMP_pressure;BME280_temperature;BME280_humidity;BME280_pressure;Samples;Min_cycle;Max_cycle;Signal;HPM_P1;HPM_P2
2022/04/18 00:02:35;;;;;;;19.60;7.17;;;;;;;6.03;63.83;101731.06;6004113;28;20378;-69
2022/04/18 00:05:31;;;;;;;23.13;7.80;;;;;;;5.93;65.04;101731.59;6005595;28;20471;-71
2022/04/18 00:08:26;;;;;;;25.67;8.43;;;;;;;5.93;65.95;101726.34;6005661;28;20110;-69
2022/04/18 00:11:21;;;;;;;19.97;8.33;;;;;;;5.90;65.75;101718.63;6003656;28;20045;-70
2022/04/18 00:14:17;;;;;;;21.33;8.13;;;;;;;5.77;64.23;101725.53;6005395;28;20542;-70
2022/04/18 00:17:12;;;;;;;24.97;8.53;;;;;;;5.60;63.97;101730.91;6005153;28;20055;-70
2022/04/18 00:20:08;;;;;;;25.85;9.55;;;;;;;5.59;63.60;101729.25;6009419;28;20106;-70
2022/04/18 00:23:03;;;;;;;22.17;8.23;;;;;;;5.84;64.10;101721.56;6002567;28;20057;-70
2022/04/18 00:25:59;;;;;;;21.92;9.10;;;;;;;5.79;65.34;101723.63;6004141;28;20033;-70
2022/04/18 00:28:54;;;;;;;29.60;10.17;;;;;;;5.70;66.30;101713.69;6004600;28;20068;-69
2022/04/18 00:31:49;;;;;;;24.60;9.18;;;;;;;5.50;66.53;101724.50;6002270;28;20042;-69
2022/04/18 00:34:45;;;;;;;26.03;11.50;;;;;;;5.57;67.15;101720.56;6003314;28;20456;-70
2022/04/18 00:37:40;;;;;;;24.13;9.77;;;;;;;5.60;67.33;101725.66;6003445;28;20031;-70
2022/04/18 00:40:36;;;;;;;21.67;9.60;;;;;;;5.65;67.83;101725.41;6002694;28;20101;-70
2022/04/18 00:43:45;;;;;;;22.27;9.45;;;;;;;5.42;66.68;101726.72;6002646;28;20058;-70
2022/04/18 00:46:40;;;;;;;30.63;9.52;;;;;;;5.20;67.08;101718.38;6003957;28;20034;-69
2022/04/18 00:49:38;;;;;;;23.48;9.48;;;;;;;5.25;67.25;101716.31;5985642;28;20030;-70
2022/04/18 00:52:36;;;;;;;21.75;8.10;;;;;;;5.18;66.76;101709.72;6002706;28;20065;-68
2022/04/18 00:55:32;;;;;;;22.58;9.48;;;;;;;5.17;66.29;101711.50;6004423;28;20089;-68
2022/04/18 00:58:28;;;;;;;24.05;8.25;;;;;;;5.04;66.43;101718.38;5987024;28;20050;-70
2022/04/18 01:01:26;;;;;;;24.05;8.52;;;;;;;4.94;66.34;101705.84;6003454;28;20062;-70
2022/04/18 01:04:21;;;;;;;19.70;7.88;;;;;;;4.92;67.45;101703.28;6004216;28;20062;-69
2022/04/18 01:07:16;;;;;;;15.67;6.80;;;;;;;5.09;66.03;101694.47;6003347;28;20499;-70
2022/04/18 01:10:12;;;;;;;18.57;6.47;;;;;;;4.75;67.18;101695.53;5985689;28;20529;-70
2022/04/18 01:13:07;;;;;;;13.60;6.50;;;;;;;4.84;67.95;101688.91;6004294;28;20041;-70
2022/04/18 01:16:02;;;;;;;17.37;6.63;;;;;;;4.74;67.67;101689.41;6010821;28;20026;-70
2022/04/18 01:18:58;;;;;;;18.10;6.95;;;;;;;4.74;67.38;101681.53;6006511;28;20035;-70
2022/04/18 01:21:53;;;;;;;17.00;6.55;;;;;;;4.51;68.87;101676.69;6003091;28;20462;-69
2022/04/18 01:31:17;;;;;;;15.85;6.53;;;;;;;4.28;69.84;101669.22;6002774;28;20038;-70
2022/04/18 01:34:12;;;;;;;13.00;5.83;;;;;;;4.60;68.54;101665.69;6003396;28;20467;-70
2022/04/18 01:37:07;;;;;;;18.37;6.63;;;;;;;4.63;68.49;101672.53;6003680;28;20510;-70
2022/04/18 01:40:04;;;;;;;16.67;6.57;;;;;;;4.58;69.10;101657.03;6002619;28;20045;-69
2022/04/18 01:43:00;;;;;;;16.90;6.55;;;;;;;4.62;68.03;101661.19;6002733;28;20034;-69
2022/04/18 01:45:55;;;;;;;14.77;6.20;;;;;;;4.58;68.50;101654.41;6015036;28;20478;-69
2022/04/18 01:48:51;;;;;;;15.25;6.10;;;;;;;4.53;67.95;101653.84;6000521;28;20039;-70
2022/04/18 01:51:47;;;;;;;13.00;5.65;;;;;;;4.46;68.42;101652.44;5999242;28;20047;-70
2022/04/18 01:54:42;;;;;;;14.77;6.10;;;;;;;4.48;68.70;101655.88;6000037;28;20047;-70
2022/04/18 01:57:38;;;;;;;14.70;6.43;;;;;;;4.51;68.91;101654.84;6002758;28;20074;-70
2022/04/18 02:00:33;;;;;;;17.80;6.73;;;;;;;4.48;68.43;101645.38;5995467;28;20041;-69
2022/04/18 02:03:28;;;;;;;15.40;6.73;;;;;;;4.40;69.31;101647.56;6000444;28;20479;-70
2022/04/18 02:06:24;;;;;;;15.00;6.37;;;;;;;4.25;68.78;101645.75;6000477;28;20053;-70
2022/04/18 02:09:19;;;;;;;15.53;6.63;;;;;;;4.20;69.27;101642.53;6001049;28;20282;-70
2022/04/18 02:12:15;;;;;;;15.50;7.07;;;;;;;4.24;69.25;101644.03;6000014;28;20042;-70
2022/04/18 02:15:10;;;;;;;17.02;7.10;;;;;;;4.29;69.58;101633.31;6001471;28;20117;-70
2022/04/18 02:18:06;;;;;;;16.13;7.20;;;;;;;4.08;70.05;101638.78;5999562;28;20037;-69
2022/04/18 02:21:01;;;;;;;10.83;6.03;;;;;;;4.08;69.52;101637.94;6000329;28;20034;-69
2022/04/18 02:23:56;;;;;;;12.50;5.28;;;;;;;3.93;70.35;101639.59;5999623;28;20070;-71
2022/04/18 02:26:52;;;;;;;13.77;5.57;;;;;;;3.82;71.48;101635.84;6000800;28;20466;-70
2022/04/18 02:29:48;;;;;;;13.68;5.30;;;;;;;3.86;71.22;101632.16;6000316;28;20085;-70
2022/04/18 02:32:49;;;;;;;13.63;6.03;;;;;;;3.88;71.69;101633.75;6000026;28;20526;-70
2022/04/18 02:35:45;;;;;;;16.52;6.82;;;;;;;3.59;71.92;101627.38;6000498;28;20042;-70
2022/04/18 02:38:40;;;;;;;14.87;7.20;;;;;;;3.64;73.09;101634.19;6000062;28;20046;-70
2022/04/18 02:41:36;;;;;;;14.90;5.90;;;;;;;3.88;72.61;101630.28;5999227;28;20081;-71
2022/04/18 02:44:32;;;;;;;12.80;6.25;;;;;;;3.25;73.63;101630.03;5996718;28;20034;-70
2022/04/18 02:47:27;;;;;;;17.07;6.87;;;;;;;2.65;74.43;101630.41;6000396;28;20057;-70
2022/04/18 02:50:22;;;;;;;14.80;7.07;;;;;;;2.34;76.36;101641.47;5998582;28;20281;-70
2022/04/18 02:53:18;;;;;;;13.15;6.25;;;;;;;2.09;77.76;101630.44;5999524;28;20038;-70
2022/04/18 02:56:13;;;;;;;16.83;6.97;;;;;;;1.84;78.33;101640.31;6000320;28;20027;-70
2022/04/18 02:59:08;;;;;;;16.90;7.80;;;;;;;1.60;79.59;101632.59;6000943;28;20086;-71
2022/04/18 03:02:04;;;;;;;17.17;6.90;;;;;;;1.70;80.19;101635.69;5999470;28;20081;-70
2022/04/18 03:04:59;;;;;;;19.13;7.75;;;;;;;2.12;81.68;101627.69;6000103;28;20695;-69
2022/04/18 03:07:54;;;;;;;17.93;7.27;;;;;;;2.40;81.60;101626.34;5999421;28;20053;-71
2022/04/18 03:11:09;;;;;;;17.53;7.87;;;;;;;2.64;80.24;101615.63;5984340;28;20043;-71
2022/04/18 03:14:05;;;;;;;15.15;7.28;;;;;;;3.15;78.93;101620.97;5997656;28;20094;-70
2022/04/18 03:17:00;;;;;;;17.27;6.70;;;;;;;3.27;79.07;101615.09;5999950;28;20346;-70
2022/04/18 03:19:55;;;;;;;16.53;6.80;;;;;;;3.07;78.35;101617.03;5999736;28;20077;-70
2022/04/18 03:22:51;;;;;;;15.30;6.77;;;;;;;3.19;77.61;101612.00;5999214;28;20035;-70
2022/04/18 03:25:46;;;;;;;17.80;6.70;;;;;;;3.11;77.43;101614.16;5999986;28;20569;-71
2022/04/18 03:28:41;;;;;;;16.00;6.77;;;;;;;2.74;76.42;101615.13;5999107;28;20043;-71
2022/04/18 03:31:36;;;;;;;12.60;6.33;;;;;;;3.05;76.97;101614.47;6004553;28;20039;-70
2022/04/18 03:34:32;;;;;;;13.57;6.87;;;;;;;3.09;76.63;101604.69;6006093;28;20066;-70
2022/04/18 03:40:41;;;;;;;16.77;6.80;;;;;;;3.34;77.37;101607.78;6003576;28;20458;-70
2022/04/18 03:43:36;;;;;;;14.17;6.27;;;;;;;3.17;77.30;101587.66;6005863;28;20027;-70
2022/04/18 03:46:31;;;;;;;18.37;7.13;;;;;;;3.12;75.46;101587.03;6019356;28;20738;-70
2022/04/18 03:49:27;;;;;;;11.10;6.37;;;;;;;3.05;76.66;101598.75;6005250;28;20097;-70
2022/04/18 03:52:24;;;;;;;13.18;6.43;;;;;;;3.30;75.90;101603.59;6005677;28;20050;-71
2022/04/18 03:55:19;;;;;;;17.60;6.20;;;;;;;3.16;76.08;101601.66;6005401;28;20113;-71
2022/04/18 03:58:15;;;;;;;16.77;6.90;;;;;;;3.28;76.62;101592.34;6005611;28;20038;-70
2022/04/18 04:01:10;;;;;;;11.63;6.20;;;;;;;3.26;76.72;101592.41;6005384;28;20043;-71
2022/04/18 04:04:05;;;;;;;14.87;7.23;;;;;;;2.95;76.56;101590.50;6005059;28;20640;-70
2022/04/18 04:07:01;;;;;;;20.13;7.17;;;;;;;2.52;77.18;101587.44;6005837;28;20324;-69
2022/04/18 04:09:56;;;;;;;12.90;6.53;;;;;;;2.37;77.74;101582.00;6004882;28;20050;-70
2022/04/18 04:12:51;;;;;;;14.87;6.17;;;;;;;2.10;77.79;101578.06;6003542;28;20069;-70
2022/04/18 04:15:47;;;;;;;13.80;7.07;;;;;;;2.62;79.68;101583.44;6003144;28;20477;-69
2022/04/18 04:18:42;;;;;;;14.67;6.20;;;;;;;2.78;79.20;101590.47;6003041;28;20034;-70
2022/04/18 04:21:37;;;;;;;13.77;6.47;;;;;;;2.83;77.75;101588.47;6002331;28;20282;-70
2022/04/18 04:24:32;;;;;;;17.67;6.17;;;;;;;2.87;77.36;101584.78;6002819;28;20539;-70
2022/04/18 04:27:30;;;;;;;14.23;6.43;;;;;;;2.85;77.59;101581.38;6003720;28;20050;-70
2022/04/18 04:30:25;;;;;;;15.25;6.32;;;;;;;2.89;77.53;101574.22;6004039;28;20034;-70
2022/04/18 04:33:21;;;;;;;16.43;6.57;;;;;;;3.02;77.51;101577.94;6004891;28;20726;-70
2022/04/18 04:36:17;;;;;;;17.03;6.53;;;;;;;3.14;76.32;101566.84;6005750;28;21294;-71
2022/04/18 04:39:12;;;;;;;16.42;7.00;;;;;;;3.18;75.01;101562.31;6011674;28;20409;-70
2022/04/18 04:42:07;;;;;;;13.23;6.33;;;;;;;3.02;74.85;101561.38;5990577;28;20039;-70
2022/04/18 04:45:03;;;;;;;15.57;5.40;;;;;;;2.82;75.90;101565.84;6007085;28;20026;-70
2022/04/18 04:47:59;;;;;;;15.57;5.65;;;;;;;2.75;76.00;101563.59;6009519;28;20046;-71
2022/04/18 04:50:55;;;;;;;10.35;5.43;;;;;;;2.92;77.74;101571.47;6005496;28;20041;-70
2022/04/18 04:53:50;;;;;;;14.50;6.07;;;;;;;3.01;76.32;101565.78;6004762;28;20034;-70
2022/04/18 04:56:45;;;;;;;13.18;5.65;;;;;;;3.17;77.36;101566.69;6004472;28;20050;-70
2022/04/18 04:59:41;;;;;;;15.77;5.90;;;;;;;3.20;76.76;101563.91;6002428;28;20093;-71
2022/04/18 05:02:36;;;;;;;14.07;5.43;;;;;;;3.37;75.23;101573.53;6003909;28;20093;-70
2022/04/18 05:05:32;;;;;;;13.60;5.50;;;;;;;3.31;75.32;101568.59;6003796;28;20034;-70
2022/04/18 05:08:27;;;;;;;12.60;5.97;;;;;;;3.41;74.59;101568.06;6004093;28;20031;-70
2022/04/18 05:11:23;;;;;;;14.25;6.20;;;;;;;3.06;74.96;101571.63;6004105;28;20038;-70
2022/04/18 05:14:18;;;;;;;16.60;6.80;;;;;;;3.01;75.56;101576.25;6008934;28;20034;-70
2022/04/18 05:17:15;;;;;;;13.35;5.60;;;;;;;3.03;75.20;101576.16;6004265;28;20053;-71
2022/04/18 05:20:11;;;;;;;13.23;6.93;;;;;;;3.07;75.37;101580.34;6002598;28;20394;-71
2022/04/18 05:23:06;;;;;;;15.15;6.53;;;;;;;3.25;75.50;101579.41;6003746;28;20033;-70
2022/04/18 05:26:01;;;;;;;15.20;6.30;;;;;;;3.57;74.54;101578.59;6004403;28;20050;-70
2022/04/18 05:28:57;;;;;;;16.23;6.70;;;;;;;3.97;73.23;101572.91;6002293;28;20038;-70
2022/04/18 05:31:52;;;;;;;14.33;6.73;;;;;;;4.03;72.47;101574.34;6002386;28;20027;-70
2022/04/18 05:34:47;;;;;;;14.23;7.50;;;;;;;4.42;71.60;101561.66;6002498;28;20648;-70
2022/04/18 05:37:43;;;;;;;17.08;7.38;;;;;;;4.91;69.59;101567.59;6001649;28;20037;-70
2022/04/18 05:40:38;;;;;;;16.33;6.47;;;;;;;5.21;69.28;101570.22;6001709;28;20395;-70
2022/04/18 05:43:33;;;;;;;12.52;6.63;;;;;;;5.49;68.17;101572.88;6001955;28;20073;-70
2022/04/18 05:46:29;;;;;;;16.07;6.60;;;;;;;5.65;66.79;101573.66;6004061;28;20487;-70
2022/04/18 05:49:24;;;;;;;13.80;6.85;;;;;;;5.66;67.47;101567.44;6002120;28;20019;-70
2022/04/18 05:52:20;;;;;;;13.13;6.00;;;;;;;6.37;65.50;101564.75;6000793;28;20034;-70
2022/04/18 05:55:15;;;;;;;15.93;6.70;;;;;;;6.77;63.33;101570.91;6001612;28;20038;-70
2022/04/18 05:58:10;;;;;;;17.20;7.20;;;;;;;6.59;63.84;101567.69;6001611;28;20030;-69
2022/04/18 06:01:06;;;;;;;14.80;6.27;;;;;;;6.38;64.31;101564.66;6001071;28;20039;-70
2022/04/18 06:04:02;;;;;;;13.68;6.75;;;;;;;6.42;64.59;101565.28;6001723;28;20393;-70
2022/04/18 06:06:57;;;;;;;16.67;6.95;;;;;;;7.07;62.78;101563.59;5998993;28;20454;-70
2022/04/18 06:09:52;;;;;;;14.67;6.63;;;;;;;7.64;62.55;101558.78;6001431;28;20038;-70
2022/04/18 06:12:48;;;;;;;16.83;6.90;;;;;;;7.66;61.34;101560.38;6000318;28;20035;-70
2022/04/18 06:15:44;;;;;;;12.00;6.57;;;;;;;7.89;61.17;101557.91;6001270;28;20061;-70
2022/04/18 06:18:39;;;;;;;12.32;6.03;;;;;;;7.63;62.08;101551.84;6001039;28;20081;-70
2022/04/18 06:21:34;;;;;;;12.63;5.97;;;;;;;7.98;61.54;101550.22;5999813;28;20046;-70
2022/04/18 06:24:30;;;;;;;13.13;6.60;;;;;;;8.26;59.63;101547.25;6000029;28;20775;-70
2022/04/18 06:27:25;;;;;;;11.47;5.97;;;;;;;7.99;59.99;101561.63;5998242;28;20050;-70
2022/04/18 06:30:20;;;;;;;14.88;6.25;;;;;;;8.24;59.25;101554.47;6000596;28;20039;-70
2022/04/18 06:33:16;;;;;;;12.80;6.23;;;;;;;8.02;59.21;101551.66;5996888;28;20034;-69
2022/04/18 06:36:11;;;;;;;12.97;6.13;;;;;;;7.72;59.60;101556.47;5998296;28;20078;-69
2022/04/18 06:39:07;;;;;;;13.45;6.25;;;;;;;7.82;60.17;101557.53;6001491;28;20745;-69
2022/04/18 06:42:06;;;;;;;12.03;5.67;;;;;;;8.17;59.23;101557.66;6000509;28;20046;-69
2022/04/18 06:45:01;;;;;;;12.25;6.05;;;;;;;8.18;58.99;101565.47;6003651;28;20031;-69
2022/04/18 06:47:57;;;;;;;14.53;5.90;;;;;;;9.23;56.33;101560.34;6002506;28;20066;-69
2022/04/18 06:50:52;;;;;;;10.82;5.72;;;;;;;8.73;57.14;101566.78;6006993;28;20081;-70
2022/04/18 06:53:47;;;;;;;11.55;6.43;;;;;;;8.80;56.63;101565.38;6001420;28;20421;-70
2022/04/18 06:57:01;;;;;;;13.03;6.03;;;;;;;8.78;56.85;101562.00;6001813;28;20042;-70
2022/04/18 06:59:56;;;;;;;11.20;4.95;;;;;;;9.11;56.53;101567.41;6002473;28;20035;-70
2022/04/18 07:02:52;;;;;;;12.20;5.63;;;;;;;9.48;56.34;101562.81;6001045;28;20058;-70
2022/04/18 07:05:48;;;;;;;10.77;6.27;;;;;;;10.05;53.59;101568.03;6004773;28;20058;-69
2022/04/18 07:08:46;;;;;;;11.25;5.38;;;;;;;9.38;55.08;101570.59;6006941;28;20166;-70
2022/04/18 07:11:42;;;;;;;9.75;4.97;;;;;;;10.04;53.76;101567.16;6004473;28;20137;-70
2022/04/18 07:14:38;;;;;;;10.38;5.05;;;;;;;9.94;53.59;101565.38;6005515;28;20042;-69
2022/04/18 07:17:34;;;;;;;12.98;5.40;;;;;;;10.30;53.68;101567.75;6006373;28;20046;-69
2022/04/18 07:20:29;;;;;;;10.18;5.05;;;;;;;10.33;53.32;101564.84;6005813;28;20421;-70
2022/04/18 07:23:25;;;;;;;13.70;5.38;;;;;;;10.45;53.27;101569.19;6005766;28;20035;-71
2022/04/18 07:26:20;;;;;;;12.73;5.67;;;;;;;10.67;52.83;101569.13;6006163;28;20031;-70
2022/04/18 07:29:16;;;;;;;12.57;5.93;;;;;;;11.16;51.85;101567.72;5987983;28;20037;-71
2022/04/18 07:32:11;;;;;;;11.63;4.88;;;;;;;11.26;51.03;101565.97;6004517;28;20037;-71
2022/04/18 07:35:08;;;;;;;10.68;5.80;;;;;;;11.44;50.98;101553.75;6006094;28;20039;-71
2022/04/18 07:41:18;;;;;;;;;;;;;;;11.16;52.59;101565.06;5999807;28;20031;-68
2022/04/18 07:44:13;;;;;;;10.40;4.93;;;;;;;11.12;52.90;101558.31;6006744;28;19913;-70
2022/04/18 07:47:09;;;;;;;10.87;5.77;;;;;;;11.21;52.40;101570.81;6015144;28;20388;-69
2022/04/18 07:50:04;;;;;;;11.65;5.55;;;;;;;11.32;52.29;101565.44;6004356;28;20030;-69
2022/04/18 07:53:00;;;;;;;9.75;5.15;;;;;;;11.60;51.86;101570.09;6007293;28;20030;-69
2022/04/18 07:55:55;;;;;;;12.07;5.05;;;;;;;11.54;51.30;101565.31;6003903;28;20035;-69
2022/04/18 07:58:51;;;;;;;10.43;5.80;;;;;;;11.66;50.12;101572.22;6004131;28;20039;-69
2022/04/18 08:01:47;;;;;;;10.98;4.93;;;;;;;11.70;49.83;101565.72;6006158;28;20039;-69
2022/04/18 08:04:42;;;;;;;10.53;5.00;;;;;;;11.61;49.98;101571.75;6003214;28;20069;-69
2022/04/18 08:07:37;;;;;;;10.27;5.17;;;;;;;11.56;49.41;101568.66;6005320;28;20039;-70
2022/04/18 08:10:36;;;;;;;10.43;5.13;;;;;;;11.74;49.70;101567.09;6006281;28;20293;-69
2022/04/18 08:13:31;;;;;;;9.20;5.25;;;;;;;11.81;50.61;101562.97;6001374;28;20093;-68
2022/04/18 08:16:27;;;;;;;12.53;5.60;;;;;;;12.12;49.61;101566.41;6001501;28;20031;-69
2022/04/18 08:19:22;;;;;;;9.15;5.10;;;;;;;12.33;48.30;101569.03;6003198;28;20277;-69
2022/04/18 08:22:18;;;;;;;14.93;5.47;;;;;;;12.51;47.76;101556.72;6000501;28;20026;-70
2022/04/18 08:25:13;;;;;;;8.80;4.40;;;;;;;12.65;46.77;101563.47;6001960;28;20471;-70
2022/04/18 08:28:08;;;;;;;12.05;4.75;;;;;;;12.38;47.26;101561.47;6007631;28;20026;-70
2022/04/18 08:31:05;;;;;;;9.68;5.03;;;;;;;12.49;47.67;101559.53;5999651;28;20070;-70
2022/04/18 08:34:01;;;;;;;11.32;5.07;;;;;;;12.59;46.38;101564.00;6003702;28;20019;-70
2022/04/18 08:36:56;;;;;;;12.13;4.70;;;;;;;12.44;46.96;101555.59;6001166;28;20122;-70
2022/04/18 08:39:51;;;;;;;8.77;4.83;;;;;;;12.47;45.66;101555.34;6002139;28;20423;-69
2022/04/18 08:42:47;;;;;;;11.80;5.27;;;;;;;12.69;46.07;101555.06;5998502;28;20035;-69
2022/04/18 08:45:42;;;;;;;13.40;5.82;;;;;;;12.75;44.66;101545.69;6008843;28;20278;-69
2022/04/18 08:55:06;;;;;;;11.25;4.38;;;;;;;13.13;43.78;101543.88;5999809;28;20117;-70
2022/04/18 08:58:02;;;;;;;8.75;4.15;;;;;;;13.29;43.41;101543.28;6003771;28;20039;-70
2022/04/18 09:00:59;;;;;;;11.07;5.22;;;;;;;13.36;44.02;101557.75;6003130;28;20042;-69
2022/04/18 09:03:54;;;;;;;9.15;4.28;;;;;;;13.58;44.43;101540.56;6002731;28;20027;-70
2022/04/18 09:06:52;;;;;;;8.00;4.20;;;;;;;14.01;42.70;101550.63;6003519;28;20497;-69
2022/04/18 09:09:54;;;;;;;8.65;4.38;;;;;;;13.85;42.60;101540.63;5985251;28;20134;-70
2022/04/18 09:12:50;;;;;;;7.85;4.03;;;;;;;14.04;41.63;101545.84;6002426;28;20070;-70
2022/04/18 09:15:49;;;;;;;8.85;4.88;;;;;;;13.97;42.11;101539.41;6003153;28;20035;-69
2022/04/18 09:18:44;;;;;;;8.60;4.45;;;;;;;13.87;42.83;101527.13;6001596;28;20102;-69
2022/04/18 09:21:43;;;;;;;8.43;4.47;;;;;;;13.65;42.80;101523.00;6004900;28;20058;-68
2022/04/18 09:24:38;;;;;;;7.57;4.68;;;;;;;14.02;42.78;101529.13;6004503;28;20046;-70
2022/04/18 09:27:34;;;;;;;9.10;5.05;;;;;;;14.12;42.17;101511.28;6002346;28;20043;-69
2022/04/18 09:30:32;;;;;;;9.70;5.00;;;;;;;14.51;41.69;101516.41;6002575;28;20031;-69
2022/04/18 09:33:30;;;;;;;8.70;4.88;;;;;;;14.72;41.24;101509.75;6002710;28;20031;-69
2022/04/18 09:36:25;;;;;;;10.02;4.57;;;;;;;14.36;42.01;101499.22;6003799;28;20045;-69
2022/04/18 09:39:24;;;;;;;7.67;4.30;;;;;;;14.40;41.77;101497.94;6004405;28;20031;-69
2022/04/18 09:42:27;;;;;;;8.63;4.68;;;;;;;14.44;40.10;101501.97;6002767;28;20023;-70
2022/04/18 09:45:22;;;;;;;9.70;5.35;;;;;;;14.92;39.45;101486.38;6001492;28;20371;-68
2022/04/18 09:48:18;;;;;;;8.23;4.75;;;;;;;14.67;40.57;101484.50;6002987;28;20122;-69
2022/04/18 09:51:23;;;;;;;10.07;5.27;;;;;;;14.62;41.02;101482.28;6001669;28;20437;-68
2022/04/18 09:54:20;;;;;;;9.43;5.30;;;;;;;14.45;41.90;101484.97;6000245;28;20826;-70
2022/04/18 09:57:20;;;;;;;9.60;4.45;;;;;;;14.43;41.18;101484.28;5999438;28;20034;-69
2022/04/18 10:00:16;;;;;;;8.77;4.95;;;;;;;14.40;40.29;101476.59;5999270;28;20031;-68
2022/04/18 10:03:11;;;;;;;7.95;4.22;;;;;;;15.14;39.28;101461.81;5984897;28;20031;-69
2022/04/18 10:06:07;;;;;;;9.50;3.95;;;;;;;15.31;37.62;101466.28;6002343;28;20093;-71
2022/04/18 10:09:03;;;;;;;7.50;4.22;;;;;;;15.39;38.25;101454.81;6002130;28;20034;-70
2022/04/18 10:11:59;;;;;;;8.32;4.50;;;;;;;15.30;38.11;101455.78;6001078;28;20042;-70
2022/04/18 10:14:55;;;;;;;8.18;4.25;;;;;;;15.99;37.11;101453.75;6001613;28;20034;-69
2022/04/18 10:17:50;;;;;;;7.33;3.87;;;;;;;15.26;36.82;101455.25;5985224;28;20081;-70
2022/04/18 10:21:04;;;;;;;7.82;4.03;;;;;;;15.78;36.26;101449.84;5983079;28;20022;-71
2022/04/18 10:24:10;;;;;;;7.53;4.53;;;;;;;15.70;36.94;101447.13;5999900;28;20530;-70
2022/04/18 10:27:30;;;;;;;10.05;4.47;;;;;;;15.57;37.23;101449.41;6002619;28;20414;-70
2022/04/18 10:30:26;;;;;;;9.48;4.35;;;;;;;15.35;38.60;101442.75;6000043;28;20035;-70
2022/04/18 10:33:23;;;;;;;7.30;4.40;;;;;;;15.81;38.72;101431.63;5984961;28;20470;-69
2022/04/18 10:36:33;;;;;;;10.27;4.35;;;;;;;16.05;37.50;101431.69;6002337;28;20049;-69
2022/04/18 10:39:36;;;;;;;8.90;4.97;;;;;;;15.72;38.05;101424.56;5996499;28;20297;-69
2022/04/18 10:42:33;;;;;;;8.05;4.00;;;;;;;16.44;38.01;101417.72;6001119;28;20038;-71
2022/04/18 10:45:29;;;;;;;7.15;3.88;;;;;;;15.63;37.20;101414.00;6004076;28;20062;-68
2022/04/18 10:48:34;;;;;;;8.75;4.03;;;;;;;15.59;36.26;101413.50;5985450;28;20037;-71
2022/04/18 10:51:35;;;;;;;7.45;4.30;;;;;;;16.30;37.13;101405.81;6007129;28;20097;-71
2022/04/18 10:54:31;;;;;;;7.50;4.00;;;;;;;16.05;35.95;101409.44;6001724;28;20089;-69
2022/04/18 10:57:27;;;;;;;8.05;3.83;;;;;;;15.87;35.37;101411.44;6002267;28;20030;-68
2022/04/18 11:00:44;;;;;;;7.18;4.55;;;;;;;15.93;34.59;101406.25;6001340;28;20039;-69
2022/04/18 11:03:52;;;;;;;7.40;3.67;;;;;;;15.95;33.82;101398.06;6001651;28;20038;-68
2022/04/18 11:06:49;;;;;;;8.13;4.07;;;;;;;16.45;34.06;101396.09;5984665;28;20047;-69
2022/04/18 11:09:46;;;;;;;8.35;3.40;;;;;;;16.64;33.69;101394.97;6001596;28;20039;-70
2022/04/18 11:12:43;;;;;;;7.50;4.38;;;;;;;16.36;34.53;101391.75;5999500;28;20039;-69
2022/04/18 11:15:38;;;;;;;7.95;4.15;;;;;;;15.55;35.57;101388.06;5980037;28;20391;-69
2022/04/18 11:18:34;;;;;;;7.83;4.10;;;;;;;15.78;34.85;101394.53;5998380;28;20050;-69
2022/04/18 11:21:58;;;;;;;6.47;3.60;;;;;;;16.29;32.52;101392.59;5980215;28;20062;-70
2022/04/18 11:24:55;;;;;;;6.57;3.00;;;;;;;15.87;32.65;101382.00;5998136;28;20782;-70
2022/04/18 11:27:53;;;;;;;7.28;3.15;;;;;;;16.01;31.00;101378.66;5999350;28;20047;-70
2022/04/18 11:30:48;;;;;;;5.07;2.65;;;;;;;16.27;30.28;101382.06;6001710;28;20038;-70
2022/04/18 11:33:44;;;;;;;6.30;2.83;;;;;;;16.26;29.48;101371.50;6001840;28;20049;-69
2022/04/18 11:36:40;;;;;;;5.38;2.08;;;;;;;15.84;28.21;101369.81;6002183;28;20066;-70
2022/04/18 11:39:49;;;;;;;4.20;1.92;;;;;;;16.24;26.20;101376.19;5984528;28;20127;-70
2022/04/18 11:42:45;;;;;;;5.35;2.53;;;;;;;16.38;27.52;101376.38;6000960;28;20113;-70
2022/04/18 11:45:41;;;;;;;7.03;2.97;;;;;;;16.45;28.65;101368.50;6015141;28;20034;-70
2022/04/18 11:48:37;;;;;;;6.05;2.65;;;;;;;16.39;30.63;101369.16;6001735;28;20065;-71
2022/04/18 11:51:39;;;;;;;5.70;3.03;;;;;;;16.79;31.03;101363.81;6003211;28;20086;-70
2022/04/18 11:54:34;;;;;;;7.15;3.83;;;;;;;16.40;31.85;101355.63;6002197;28;20034;-70
2022/04/18 11:57:32;;;;;;;8.30;3.60;;;;;;;16.43;32.09;101349.94;6006419;28;20042;-70
2022/04/18 12:06:55;;;;;;;6.65;2.70;;;;;;;16.32;29.81;101358.31;6005965;28;20034;-70
2022/04/18 12:09:50;;;;;;;5.73;2.93;;;;;;;16.45;29.43;101345.25;6005699;28;20506;-69
2022/04/18 12:12:46;;;;;;;5.23;2.33;;;;;;;16.48;29.21;101355.63;6004530;28;20482;-70
2022/04/18 12:15:42;;;;;;;3.45;1.63;;;;;;;16.87;27.41;101341.53;6011488;28;20093;-70
2022/04/18 12:18:39;;;;;;;3.85;2.03;;;;;;;16.59;27.59;101339.25;6005619;28;20122;-70
2022/04/18 12:21:34;;;;;;;5.82;2.63;;;;;;;16.88;27.46;101332.47;6004776;28;20066;-70
2022/04/18 12:24:39;;;;;;;7.28;2.65;;;;;;;16.77;28.44;101330.19;6005317;28;20053;-70
2022/04/18 12:27:38;;;;;;;5.88;2.97;;;;;;;16.48;30.10;101326.16;6005282;28;20053;-70
2022/04/18 12:30:34;;;;;;;5.57;2.80;;;;;;;16.89;30.24;101326.94;6004723;28;20165;-70
2022/04/18 12:33:30;;;;;;;6.63;3.00;;;;;;;17.35;27.54;101317.22;5987972;28;20027;-70
2022/04/18 12:36:27;;;;;;;6.30;2.75;;;;;;;17.00;27.60;101313.19;6005075;28;20781;-70
2022/04/18 12:39:23;;;;;;;5.43;2.10;;;;;;;16.64;28.71;101310.09;6004130;28;20089;-70
2022/04/18 12:42:22;;;;;;;6.22;2.53;;;;;;;16.52;27.97;101298.03;6004508;28;20051;-70
2022/04/18 12:45:17;;;;;;;4.80;2.38;;;;;;;16.57;28.30;101309.13;5987647;28;20027;-70
2022/04/18 12:48:13;;;;;;;4.83;2.20;;;;;;;16.60;29.12;101298.03;6004833;28;20035;-69
2022/04/18 12:51:08;;;;;;;4.85;2.15;;;;;;;16.96;29.61;101287.72;6004227;28;20039;-70
2022/04/18 12:54:05;;;;;;;5.50;3.23;;;;;;;16.38;29.38;101293.38;6004920;28;20037;-70
2022/04/18 12:57:01;;;;;;;6.05;3.03;;;;;;;16.50;30.02;101291.16;6004757;28;20634;-70
2022/04/18 13:00:07;;;;;;;4.53;2.30;;;;;;;16.81;29.65;101285.94;6003759;28;20050;-71
2022/04/18 13:03:06;;;;;;;;;;;;;;;17.06;28.98;101276.81;6004235;28;20085;-70
2022/04/18 13:06:02;;;;;;;6.13;2.65;;;;;;;16.79;29.11;101277.25;6004349;28;19972;-70
2022/04/18 13:09:03;;;;;;;6.85;3.10;;;;;;;16.55;30.03;101270.94;6004256;28;20090;-70
2022/04/18 13:12:03;;;;;;;6.43;2.80;;;;;;;16.39;29.66;101270.94;6003502;28;20033;-71
2022/04/18 13:15:03;;;;;;;4.85;2.60;;;;;;;16.42;29.90;101261.72;6004142;28;20042;-70
2022/04/18 13:18:04;;;;;;;6.97;2.80;;;;;;;16.56;29.87;101264.59;6004249;28;20505;-70
2022/04/18 13:21:00;;;;;;;3.92;2.00;;;;;;;17.04;30.15;101257.41;6004238;28;20026;-70
2022/04/18 13:23:56;;;;;;;4.53;1.93;;;;;;;16.90;30.42;101258.13;6004144;28;20083;-70
2022/04/18 13:26:51;;;;;;;4.07;1.92;;;;;;;17.10;30.57;101257.53;6003595;28;20397;-70
2022/04/18 13:29:47;;;;;;;8.17;2.77;;;;;;;17.39;31.10;101262.25;6004147;28;20049;-70
2022/04/18 13:32:42;;;;;;;5.37;2.30;;;;;;;17.11;31.30;101243.13;6003206;28;20031;-70
2022/04/18 13:38:53;;;;;;;4.25;1.95;;;;;;;17.52;30.90;101243.72;6003979;28;20039;-71
2022/04/18 13:41:49;;;;;;;3.75;1.73;;;;;;;17.54;30.82;101231.00;5985948;28;20034;-70
2022/04/18 13:44:44;;;;;;;4.30;2.33;;;;;;;16.82;31.45;101237.56;6009404;28;20377;-70
2022/04/18 13:47:40;;;;;;;4.77;2.13;;;;;;;16.62;31.45;101226.41;6010688;28;20057;-70
2022/04/18 13:50:36;;;;;;;4.93;2.08;;;;;;;16.89;30.88;101227.81;6003222;28;20027;-71
2022/04/18 13:53:31;;;;;;;6.18;2.70;;;;;;;16.81;31.89;101224.34;6003853;28;20121;-70
2022/04/18 13:56:28;;;;;;;4.97;2.57;;;;;;;17.39;31.22;101213.97;6003873;28;20043;-70
2022/04/18 13:59:24;;;;;;;5.75;2.45;;;;;;;16.31;32.28;101216.59;6007554;28;20030;-70
2022/04/18 14:02:19;;;;;;;7.27;2.00;;;;;;;16.86;31.26;101206.72;6007205;28;20077;-70
2022/04/18 14:05:14;;;;;;;4.37;2.80;;;;;;;17.28;31.96;101201.78;6003318;28;20378;-71
2022/04/18 14:08:11;;;;;;;5.43;2.30;;;;;;;17.36;33.04;101206.28;6002938;28;20047;-71
2022/04/18 14:11:08;;;;;;;4.15;2.15;;;;;;;17.34;32.97;101200.25;6001504;28;20034;-71